createdAt,value
2017-08-25T00:00:07.853Z,23.97
2017-08-25T00:00:17.834Z,23.92
2017-08-25T00:00:27.855Z,23.93
2017-08-25T00:00:37.894Z,23.97
2017-08-25T00:00:47.875Z,23.92
2017-08-25T00:00:57.913Z,23.97
2017-08-25T00:01:07.914Z,23.92
2017-08-25T00:01:17.924Z,23.92
2017-08-25T00:01:27.944Z,23.9
2017-08-25T00:01:37.954Z,23.87
2017-08-25T00:01:47.971Z,23.9
2017-08-25T00:01:57.976Z,23.95
2017-08-25T00:02:08.019Z,23.92
2017-08-25T00:02:18.028Z,23.89
2017-08-25T00:02:28.034Z,23.92
2017-08-25T00:02:38.040Z,23.93
2017-08-25T00:02:48.054Z,24
2017-08-25T00:02:58.074Z,23.95
2017-08-25T00:03:08.084Z,24
2017-08-25T00:03:18.112Z,23.87
2017-08-25T00:03:28.094Z,23.95
2017-08-25T00:03:38.124Z,23.89
2017-08-25T00:03:48.144Z,23.97
2017-08-25T00:03:58.155Z,23.95
2017-08-25T00:04:08.165Z,23.97
2017-08-25T00:04:18.184Z,24
2017-08-25T00:04:28.194Z,24.01
2017-08-25T00:04:38.204Z,23.87
2017-08-25T00:04:48.214Z,23.97
2017-08-25T00:04:58.236Z,23.97
2017-08-25T00:05:08.264Z,23.87
2017-08-25T00:05:18.284Z,23.92
2017-08-25T00:05:28.284Z,23.93
2017-08-25T00:05:38.398Z,23.95
2017-08-25T00:05:48.326Z,23.89
2017-08-25T00:05:58.324Z,23.93
2017-08-25T00:06:08.334Z,23.98
2017-08-25T00:06:18.364Z,23.89
2017-08-25T00:06:28.374Z,23.93
2017-08-25T00:06:38.384Z,23.92
2017-08-25T00:06:48.414Z,23.9
2017-08-25T00:06:58.464Z,24
2017-08-25T00:07:08.414Z,23.97
2017-08-25T00:07:18.434Z,23.9
2017-08-25T00:07:28.473Z,23.97
2017-08-25T00:07:38.465Z,23.89
2017-08-25T00:07:48.474Z,23.98
2017-08-25T00:07:58.495Z,23.97
2017-08-25T00:08:08.494Z,23.9
2017-08-25T00:08:18.524Z,23.9
2017-08-25T00:08:28.595Z,23.95
2017-08-25T00:08:38.543Z,23.93
2017-08-25T00:08:48.554Z,23.9
2017-08-25T00:08:58.574Z,23.93
2017-08-25T00:09:08.608Z,23.92
2017-08-25T00:09:18.597Z,24.01
2017-08-25T00:09:28.614Z,23.93
2017-08-25T00:09:38.634Z,23.89
2017-08-25T00:09:48.644Z,23.92
2017-08-25T00:09:58.661Z,23.93
2017-08-25T00:10:08.684Z,23.98
2017-08-25T00:10:18.699Z,23.92
2017-08-25T00:10:28.703Z,23.92
2017-08-25T00:10:38.734Z,23.89
2017-08-25T00:10:48.744Z,23.92
2017-08-25T00:10:58.734Z,23.87
2017-08-25T00:11:08.774Z,23.89
2017-08-25T00:11:18.805Z,23.95
2017-08-25T00:11:28.774Z,23.95
2017-08-25T00:11:38.827Z,23.92
2017-08-25T00:11:48.834Z,24.02
2017-08-25T00:11:58.814Z,23.93
2017-08-25T00:12:08.834Z,23.95
2017-08-25T00:12:18.854Z,23.92
2017-08-25T00:12:28.896Z,23.95
2017-08-25T00:12:38.873Z,23.95
2017-08-25T00:12:48.894Z,23.9
2017-08-25T00:12:58.924Z,23.93
2017-08-25T00:13:08.915Z,23.9
2017-08-25T00:13:18.943Z,23.92
2017-08-25T00:13:28.964Z,23.95
2017-08-25T00:13:38.961Z,23.89
2017-08-25T00:13:48.974Z,23.9
2017-08-25T00:13:59.027Z,23.93
2017-08-25T00:14:08.997Z,23.95
2017-08-25T00:14:19.044Z,23.92
2017-08-25T00:14:29.176Z,23.93
2017-08-25T00:14:39.064Z,23.93
2017-08-25T00:14:49.073Z,23.87
2017-08-25T00:14:59.080Z,23.89
2017-08-25T00:15:09.115Z,23.89
2017-08-25T00:15:19.134Z,23.95
2017-08-25T00:15:29.114Z,23.92
2017-08-25T00:15:39.136Z,23.95
2017-08-25T00:15:49.147Z,23.95
2017-08-25T00:15:59.161Z,23.98
2017-08-25T00:16:09.174Z,23.9
2017-08-25T00:16:19.181Z,23.9
2017-08-25T00:16:29.225Z,23.95
2017-08-25T00:16:39.215Z,23.95
2017-08-25T00:16:49.234Z,23.89
2017-08-25T00:16:59.250Z,23.87
2017-08-25T00:17:09.257Z,23.92
2017-08-25T00:17:19.274Z,23.93
2017-08-25T00:17:29.275Z,23.98
2017-08-25T00:17:39.294Z,23.89
2017-08-25T00:17:49.322Z,23.9
2017-08-25T00:17:59.364Z,23.89
2017-08-25T00:18:09.344Z,23.89
2017-08-25T00:18:19.355Z,23.92
2017-08-25T00:18:29.363Z,23.9
2017-08-25T00:18:39.397Z,23.9
2017-08-25T00:18:49.404Z,23.93
2017-08-25T00:18:59.414Z,23.93
2017-08-25T00:19:09.444Z,24.01
2017-08-25T00:19:19.425Z,23.93
2017-08-25T00:19:29.464Z,23.89
2017-08-25T00:19:39.494Z,23.93
2017-08-25T00:19:49.476Z,23.92
2017-08-25T00:19:59.515Z,23.89
2017-08-25T00:20:09.497Z,23.97
2017-08-25T00:20:19.531Z,23.95
2017-08-25T00:20:29.536Z,23.9
2017-08-25T00:20:39.573Z,23.95
2017-08-25T00:20:49.575Z,23.92
2017-08-25T00:20:59.576Z,23.92
2017-08-25T00:21:09.603Z,23.92
2017-08-25T00:21:19.615Z,23.89
2017-08-25T00:21:29.683Z,23.89
2017-08-25T00:21:39.669Z,23.95
2017-08-25T00:21:49.645Z,23.92
2017-08-25T00:21:59.662Z,23.95
2017-08-25T00:22:09.695Z,23.93
2017-08-25T00:22:19.702Z,23.86
2017-08-25T00:22:29.705Z,23.92
2017-08-25T00:22:39.743Z,24
2017-08-25T00:22:49.745Z,23.95
2017-08-25T00:22:59.745Z,23.92
2017-08-25T00:23:09.754Z,23.93
2017-08-25T00:23:19.796Z,23.9
2017-08-25T00:23:29.795Z,23.92
2017-08-25T00:23:39.816Z,23.9
2017-08-25T00:23:49.865Z,23.97
2017-08-25T00:23:59.847Z,23.92
2017-08-25T00:24:09.835Z,23.9
2017-08-25T00:24:19.866Z,23.92
2017-08-25T00:24:29.911Z,23.87
2017-08-25T00:24:39.895Z,23.93
2017-08-25T00:24:49.915Z,23.9
2017-08-25T00:24:59.956Z,23.92
2017-08-25T00:25:09.924Z,24
2017-08-25T00:25:19.945Z,23.95
2017-08-25T00:25:29.969Z,23.93
2017-08-25T00:25:39.972Z,23.93
2017-08-25T00:25:49.975Z,23.92
2017-08-25T00:26:00.013Z,23.89
2017-08-25T00:26:10.014Z,23.95
2017-08-25T00:26:20.025Z,23.93
2017-08-25T00:26:30.034Z,23.87
2017-08-25T00:26:40.065Z,23.87
2017-08-25T00:26:50.055Z,23.92
2017-08-25T00:27:00.085Z,23.92
2017-08-25T00:27:10.095Z,23.93
2017-08-25T00:27:20.096Z,23.87
2017-08-25T00:27:30.115Z,23.89
2017-08-25T00:27:40.146Z,23.92
2017-08-25T00:27:50.142Z,23.92
2017-08-25T00:28:00.165Z,23.93
2017-08-25T00:28:10.176Z,23.89
2017-08-25T00:28:20.215Z,23.89
2017-08-25T00:28:30.206Z,23.95
2017-08-25T00:28:40.225Z,23.92
2017-08-25T00:28:50.235Z,23.9
2017-08-25T00:29:00.245Z,23.9
2017-08-25T00:29:10.272Z,23.92
2017-08-25T00:29:20.275Z,23.93
2017-08-25T00:29:30.285Z,23.95
2017-08-25T00:29:40.294Z,23.9
2017-08-25T00:29:50.345Z,23.93
2017-08-25T00:30:00.340Z,23.9
2017-08-25T00:30:10.335Z,23.95
2017-08-25T00:30:20.385Z,23.9
2017-08-25T00:30:30.395Z,23.97
2017-08-25T00:30:40.397Z,23.89
2017-08-25T00:30:50.415Z,23.93
2017-08-25T00:31:00.415Z,23.9
2017-08-25T00:31:10.426Z,23.89
2017-08-25T00:31:20.445Z,23.9
2017-08-25T00:31:30.467Z,23.93
2017-08-25T00:31:40.465Z,23.92
2017-08-25T00:31:50.496Z,23.89
2017-08-25T00:32:00.485Z,23.9
2017-08-25T00:32:10.495Z,23.92
2017-08-25T00:32:20.525Z,23.95
2017-08-25T00:32:30.517Z,23.93
2017-08-25T00:32:40.535Z,23.92
2017-08-25T00:32:50.595Z,23.92
2017-08-25T00:33:00.575Z,23.9
2017-08-25T00:33:10.588Z,23.9
2017-08-25T00:33:20.613Z,23.92
2017-08-25T00:33:30.630Z,23.87
2017-08-25T00:33:40.625Z,23.92
2017-08-25T00:33:50.685Z,23.93
2017-08-25T00:34:00.665Z,23.92
2017-08-25T00:34:10.687Z,23.89
2017-08-25T00:34:20.687Z,23.97
2017-08-25T00:34:30.695Z,23.9
2017-08-25T00:34:40.694Z,23.9
2017-08-25T00:34:50.725Z,23.9
2017-08-25T00:35:00.735Z,23.97
2017-08-25T00:35:10.775Z,23.89
2017-08-25T00:35:20.754Z,23.89
2017-08-25T00:35:30.795Z,23.87
2017-08-25T00:35:40.805Z,23.97
2017-08-25T00:35:50.796Z,23.93
2017-08-25T00:36:00.835Z,23.93
2017-08-25T00:36:10.855Z,23.86
2017-08-25T00:36:20.837Z,23.89
2017-08-25T00:36:30.865Z,23.92
2017-08-25T00:36:40.885Z,23.85
2017-08-25T00:36:50.915Z,23.9
2017-08-25T00:37:00.898Z,23.93
2017-08-25T00:37:10.926Z,23.9
2017-08-25T00:37:20.946Z,23.87
2017-08-25T00:37:30.958Z,23.93
2017-08-25T00:37:40.985Z,23.89
2017-08-25T00:37:50.975Z,23.95
2017-08-25T00:38:00.996Z,23.9
2017-08-25T00:38:11.015Z,23.86
2017-08-25T00:38:21.033Z,23.92
2017-08-25T00:38:31.064Z,23.95
2017-08-25T00:38:41.055Z,23.9
2017-08-25T00:38:51.054Z,23.97
2017-08-25T00:39:01.108Z,23.95
2017-08-25T00:39:11.105Z,23.92
2017-08-25T00:39:21.111Z,23.89
2017-08-25T00:39:31.123Z,23.89
2017-08-25T00:39:41.135Z,23.92
2017-08-25T00:39:51.159Z,23.93
2017-08-25T00:40:01.175Z,23.95
2017-08-25T00:40:11.167Z,23.89
2017-08-25T00:40:21.189Z,23.95
2017-08-25T00:40:31.195Z,23.89
2017-08-25T00:40:41.195Z,23.89
2017-08-25T00:40:51.224Z,23.89
2017-08-25T00:41:01.245Z,23.9
2017-08-25T00:41:11.279Z,23.86
2017-08-25T00:41:21.265Z,23.95
2017-08-25T00:41:31.306Z,23.92
2017-08-25T00:41:41.304Z,23.9
2017-08-25T00:41:51.306Z,23.87
2017-08-25T00:42:01.323Z,23.93
2017-08-25T00:42:11.345Z,23.92
2017-08-25T00:42:21.365Z,23.86
2017-08-25T00:42:31.375Z,23.9
2017-08-25T00:42:41.385Z,23.9
2017-08-25T00:42:51.395Z,23.86
2017-08-25T00:43:01.397Z,23.85
2017-08-25T00:43:11.435Z,23.92
2017-08-25T00:43:21.464Z,23.95
2017-08-25T00:43:31.445Z,23.87
2017-08-25T00:43:41.494Z,23.89
2017-08-25T00:43:51.562Z,23.89
2017-08-25T00:44:01.523Z,23.89
2017-08-25T00:44:11.505Z,23.89
2017-08-25T00:44:21.536Z,23.92
2017-08-25T00:44:31.555Z,23.86
2017-08-25T00:44:41.555Z,23.9
2017-08-25T00:44:51.606Z,23.95
2017-08-25T00:45:01.653Z,23.9
2017-08-25T00:45:11.586Z,23.95
2017-08-25T00:45:21.605Z,23.9
2017-08-25T00:45:31.624Z,23.9
2017-08-25T00:45:41.635Z,23.86
2017-08-25T00:45:51.654Z,23.87
2017-08-25T00:46:01.666Z,23.9
2017-08-25T00:46:11.666Z,23.89
2017-08-25T00:46:21.686Z,23.92
2017-08-25T00:46:31.706Z,23.93
2017-08-25T00:46:41.716Z,23.95
2017-08-25T00:46:51.731Z,23.9
2017-08-25T00:47:01.736Z,23.93
2017-08-25T00:47:11.761Z,23.87
2017-08-25T00:47:21.755Z,23.9
2017-08-25T00:47:31.797Z,23.87
2017-08-25T00:47:41.796Z,23.86
2017-08-25T00:47:51.815Z,23.95
2017-08-25T00:48:01.826Z,23.89
2017-08-25T00:48:11.836Z,23.86
2017-08-25T00:48:21.847Z,23.86
2017-08-25T00:48:31.856Z,23.9
2017-08-25T00:48:41.887Z,23.92
2017-08-25T00:48:51.896Z,23.97
2017-08-25T00:49:01.914Z,23.93
2017-08-25T00:49:11.915Z,23.97
2017-08-25T00:49:21.956Z,23.9
2017-08-25T00:49:31.955Z,23.92
2017-08-25T00:49:41.978Z,23.87
2017-08-25T00:49:52.007Z,23.92
2017-08-25T00:50:01.975Z,23.86
2017-08-25T00:50:12.007Z,23.95
2017-08-25T00:50:22.017Z,23.93
2017-08-25T00:50:32.045Z,23.92
2017-08-25T00:50:42.037Z,23.87
2017-08-25T00:50:52.076Z,23.89
2017-08-25T00:51:02.097Z,23.87
2017-08-25T00:51:12.092Z,23.89
2017-08-25T00:51:22.106Z,23.83
2017-08-25T00:51:32.116Z,23.92
2017-08-25T00:51:42.126Z,23.93
2017-08-25T00:51:52.146Z,23.87
2017-08-25T00:52:02.189Z,23.95
2017-08-25T00:52:12.176Z,23.87
2017-08-25T00:52:22.187Z,23.93
2017-08-25T00:52:32.206Z,23.9
2017-08-25T00:52:42.234Z,23.9
2017-08-25T00:52:52.226Z,23.95
2017-08-25T00:53:02.264Z,23.95
2017-08-25T00:53:12.272Z,23.87
2017-08-25T00:53:22.266Z,23.87
2017-08-25T00:53:32.285Z,23.9
2017-08-25T00:53:42.318Z,23.9
2017-08-25T00:53:52.296Z,23.87
2017-08-25T00:54:02.316Z,23.87
2017-08-25T00:54:12.336Z,23.93
2017-08-25T00:54:22.356Z,23.95
2017-08-25T00:54:32.376Z,23.92
2017-08-25T00:54:42.396Z,23.87
2017-08-25T00:54:52.406Z,23.87
2017-08-25T00:55:02.436Z,23.95
2017-08-25T00:55:12.427Z,23.86
2017-08-25T00:55:22.456Z,23.93
2017-08-25T00:55:32.456Z,23.93
2017-08-25T00:55:42.467Z,23.93
2017-08-25T00:55:52.497Z,23.93
2017-08-25T00:56:02.476Z,23.97
2017-08-25T00:56:12.497Z,23.85
2017-08-25T00:56:22.536Z,23.87
2017-08-25T00:56:32.546Z,23.92
2017-08-25T00:56:42.536Z,23.95
2017-08-25T00:56:52.567Z,23.95
2017-08-25T00:57:02.591Z,23.93
2017-08-25T00:57:12.594Z,23.89
2017-08-25T00:57:22.598Z,23.9
2017-08-25T00:57:32.626Z,23.89
2017-08-25T00:57:42.630Z,23.9
2017-08-25T00:57:52.658Z,23.92
2017-08-25T00:58:02.696Z,23.92
2017-08-25T00:58:12.656Z,23.85
2017-08-25T00:58:22.696Z,23.92
2017-08-25T00:58:32.705Z,23.9
2017-08-25T00:58:42.726Z,23.9
2017-08-25T00:58:52.725Z,23.9
2017-08-25T00:59:02.757Z,23.97
2017-08-25T00:59:12.756Z,23.87
2017-08-25T00:59:22.773Z,23.93
2017-08-25T00:59:32.786Z,23.9
2017-08-25T00:59:42.816Z,23.95
2017-08-25T00:59:52.812Z,23.89
2017-08-25T01:00:02.818Z,23.92
2017-08-25T01:00:12.857Z,23.97
2017-08-25T01:00:22.874Z,23.92
2017-08-25T01:00:32.898Z,23.87
2017-08-25T01:00:42.892Z,23.95
2017-08-25T01:00:52.922Z,23.95
2017-08-25T01:01:02.899Z,23.95
2017-08-25T01:01:12.936Z,23.93
2017-08-25T01:01:22.937Z,23.9
2017-08-25T01:01:32.956Z,23.93
2017-08-25T01:01:42.976Z,23.87
2017-08-25T01:01:52.986Z,23.86
2017-08-25T01:02:02.996Z,23.9
2017-08-25T01:02:13.031Z,23.87
2017-08-25T01:02:23.044Z,23.92
2017-08-25T01:02:33.056Z,23.92
2017-08-25T01:02:43.046Z,23.86
2017-08-25T01:02:53.066Z,23.9
2017-08-25T01:03:03.096Z,23.93
2017-08-25T01:03:13.086Z,23.86
2017-08-25T01:03:23.116Z,23.9
2017-08-25T01:03:33.133Z,23.9
2017-08-25T01:03:43.126Z,23.9
2017-08-25T01:03:53.186Z,23.92
2017-08-25T01:04:03.167Z,23.9
2017-08-25T01:04:13.188Z,23.9
2017-08-25T01:04:23.186Z,23.86
2017-08-25T01:04:33.206Z,23.9
2017-08-25T01:04:43.258Z,23.93
2017-08-25T01:04:53.216Z,23.87
2017-08-25T01:05:03.235Z,23.87
2017-08-25T01:05:13.268Z,23.9
2017-08-25T01:05:23.286Z,23.86
2017-08-25T01:05:33.293Z,23.9
2017-08-25T01:05:43.306Z,23.95
2017-08-25T01:05:53.330Z,23.92
2017-08-25T01:06:03.328Z,23.87
2017-08-25T01:06:13.346Z,23.86
2017-08-25T01:06:23.366Z,23.87
2017-08-25T01:06:33.357Z,23.89
2017-08-25T01:06:43.378Z,23.86
2017-08-25T01:06:53.404Z,23.82
2017-08-25T01:07:03.405Z,23.83
2017-08-25T01:07:13.436Z,23.85
2017-08-25T01:07:23.443Z,23.87
2017-08-25T01:07:33.442Z,23.86
2017-08-25T01:07:43.456Z,23.93
2017-08-25T01:07:53.487Z,23.89
2017-08-25T01:08:03.475Z,23.85
2017-08-25T01:08:13.498Z,23.92
2017-08-25T01:08:23.549Z,23.86
2017-08-25T01:08:33.546Z,23.89
2017-08-25T01:08:43.536Z,23.83
2017-08-25T01:08:53.556Z,23.89
2017-08-25T01:09:03.616Z,23.86
2017-08-25T01:09:13.577Z,23.87
2017-08-25T01:09:23.660Z,23.9
2017-08-25T01:09:33.616Z,23.86
2017-08-25T01:09:43.648Z,23.9
2017-08-25T01:09:53.657Z,23.92
2017-08-25T01:10:03.697Z,23.89
2017-08-25T01:10:13.687Z,23.87
2017-08-25T01:10:23.687Z,23.87
2017-08-25T01:10:33.697Z,23.86
2017-08-25T01:10:43.729Z,23.92
2017-08-25T01:10:53.731Z,23.86
2017-08-25T01:11:03.747Z,23.85
2017-08-25T01:11:13.757Z,23.83
2017-08-25T01:11:23.767Z,23.82
2017-08-25T01:11:33.777Z,23.86
2017-08-25T01:11:43.796Z,23.9
2017-08-25T01:11:53.827Z,23.89
2017-08-25T01:12:03.817Z,23.87
2017-08-25T01:12:13.847Z,23.83
2017-08-25T01:12:23.867Z,23.86
2017-08-25T01:12:33.879Z,23.9
2017-08-25T01:12:43.887Z,23.89
2017-08-25T01:12:53.897Z,23.85
2017-08-25T01:13:03.899Z,23.83
2017-08-25T01:13:13.917Z,23.83
2017-08-25T01:13:23.947Z,23.9
2017-08-25T01:13:33.937Z,23.83
2017-08-25T01:13:43.958Z,23.83
2017-08-25T01:13:53.977Z,23.85
2017-08-25T01:14:03.997Z,23.83
2017-08-25T01:14:14.005Z,23.89
2017-08-25T01:14:24.037Z,23.85
2017-08-25T01:14:34.037Z,23.85
2017-08-25T01:14:44.037Z,23.83
2017-08-25T01:14:54.075Z,23.85
2017-08-25T01:15:04.097Z,23.89
2017-08-25T01:15:14.077Z,23.92
2017-08-25T01:15:24.117Z,23.92
2017-08-25T01:15:34.117Z,23.87
2017-08-25T01:15:44.117Z,23.83
2017-08-25T01:15:54.147Z,23.86
2017-08-25T01:16:04.157Z,23.83
2017-08-25T01:16:14.257Z,23.85
2017-08-25T01:16:24.177Z,23.85
2017-08-25T01:16:34.196Z,23.86
2017-08-25T01:16:44.242Z,23.87
2017-08-25T01:16:54.226Z,23.87
2017-08-25T01:17:04.247Z,23.85
2017-08-25T01:17:14.288Z,23.86
2017-08-25T01:17:24.290Z,23.85
2017-08-25T01:17:34.287Z,23.8
2017-08-25T01:17:44.331Z,23.85
2017-08-25T01:17:54.342Z,23.87
2017-08-25T01:18:04.323Z,23.83
2017-08-25T01:18:14.346Z,23.87
2017-08-25T01:18:24.397Z,23.85
2017-08-25T01:18:34.386Z,23.83
2017-08-25T01:18:44.386Z,23.89
2017-08-25T01:18:54.417Z,23.89
2017-08-25T01:19:04.407Z,23.82
2017-08-25T01:19:14.437Z,23.83
2017-08-25T01:19:24.437Z,23.83
2017-08-25T01:19:34.477Z,23.92
2017-08-25T01:19:44.468Z,23.82
2017-08-25T01:19:54.496Z,23.83
2017-08-25T01:20:04.511Z,23.83
2017-08-25T01:20:14.517Z,23.85
2017-08-25T01:20:24.517Z,23.85
2017-08-25T01:20:34.547Z,23.85
2017-08-25T01:20:44.552Z,23.85
2017-08-25T01:20:54.556Z,23.86
2017-08-25T01:21:04.606Z,23.9
2017-08-25T01:21:14.607Z,23.9
2017-08-25T01:21:24.607Z,23.89
2017-08-25T01:21:34.637Z,23.86
2017-08-25T01:21:44.657Z,23.85
2017-08-25T01:21:54.637Z,23.8
2017-08-25T01:22:04.677Z,23.87
2017-08-25T01:22:14.677Z,23.89
2017-08-25T01:22:24.698Z,23.87
2017-08-25T01:22:34.709Z,23.85
2017-08-25T01:22:44.726Z,23.85
2017-08-25T01:22:54.726Z,23.83
2017-08-25T01:23:04.747Z,23.83
2017-08-25T01:23:14.796Z,23.83
2017-08-25T01:23:24.777Z,23.83
2017-08-25T01:23:34.787Z,23.87
2017-08-25T01:23:44.797Z,23.85
2017-08-25T01:23:54.817Z,23.83
2017-08-25T01:24:04.847Z,23.83
2017-08-25T01:24:14.849Z,23.92
2017-08-25T01:24:24.866Z,23.9
2017-08-25T01:24:34.877Z,23.87
2017-08-25T01:24:44.897Z,23.79
2017-08-25T01:24:54.927Z,23.87
2017-08-25T01:25:04.909Z,23.82
2017-08-25T01:25:14.917Z,23.85
2017-08-25T01:25:24.937Z,23.87
2017-08-25T01:25:34.959Z,23.86
2017-08-25T01:25:44.996Z,23.83
2017-08-25T01:25:54.977Z,23.87
2017-08-25T01:26:05.026Z,23.87
2017-08-25T01:26:15.007Z,23.83
2017-08-25T01:26:25.027Z,23.87
2017-08-25T01:26:35.047Z,23.83
2017-08-25T01:26:45.059Z,23.8
2017-08-25T01:26:55.067Z,23.82
2017-08-25T01:27:05.082Z,23.86
2017-08-25T01:27:15.102Z,23.85
2017-08-25T01:27:25.097Z,23.83
2017-08-25T01:27:35.147Z,23.8
2017-08-25T01:27:45.154Z,23.89
2017-08-25T01:27:55.142Z,23.83
2017-08-25T01:28:05.157Z,23.87
2017-08-25T01:28:15.197Z,23.86
2017-08-25T01:28:25.187Z,23.85
2017-08-25T01:28:35.197Z,23.85
2017-08-25T01:28:45.227Z,23.92
2017-08-25T01:28:55.237Z,23.85
2017-08-25T01:29:05.287Z,23.87
2017-08-25T01:29:15.267Z,23.87
2017-08-25T01:29:25.286Z,23.85
2017-08-25T01:29:35.284Z,23.82
2017-08-25T01:29:45.297Z,23.85
2017-08-25T01:29:55.318Z,23.87
2017-08-25T01:30:05.325Z,23.83
2017-08-25T01:30:15.347Z,23.86
2017-08-25T01:30:25.357Z,23.89
2017-08-25T01:30:35.368Z,23.83
2017-08-25T01:30:45.379Z,23.85
2017-08-25T01:30:55.407Z,23.85
2017-08-25T01:31:05.407Z,23.79
2017-08-25T01:31:15.437Z,23.8
2017-08-25T01:31:25.439Z,23.87
2017-08-25T01:31:35.473Z,23.79
2017-08-25T01:31:45.467Z,23.87
2017-08-25T01:31:55.477Z,23.83
2017-08-25T01:32:05.500Z,23.85
2017-08-25T01:32:15.506Z,23.86
2017-08-25T01:32:25.528Z,23.87
2017-08-25T01:32:35.547Z,23.86
2017-08-25T01:32:45.560Z,23.87
2017-08-25T01:32:55.559Z,23.86
2017-08-25T01:33:05.607Z,23.82
2017-08-25T01:33:15.597Z,23.83
2017-08-25T01:33:25.623Z,23.85
2017-08-25T01:33:35.631Z,23.82
2017-08-25T01:33:45.680Z,23.86
2017-08-25T01:33:55.676Z,23.82
2017-08-25T01:34:05.668Z,23.74
2017-08-25T01:34:15.696Z,23.78
2017-08-25T01:34:25.698Z,23.8
2017-08-25T01:34:35.765Z,23.82
2017-08-25T01:34:45.719Z,23.78
2017-08-25T01:34:55.738Z,23.78
2017-08-25T01:35:05.748Z,23.83
2017-08-25T01:35:15.767Z,23.8
2017-08-25T01:35:25.781Z,23.87
2017-08-25T01:35:35.788Z,23.79
2017-08-25T01:35:45.808Z,23.82
2017-08-25T01:35:55.828Z,23.82
2017-08-25T01:36:05.830Z,23.87
2017-08-25T01:36:15.845Z,23.82
2017-08-25T01:36:25.861Z,23.87
2017-08-25T01:36:35.858Z,23.87
2017-08-25T01:36:45.888Z,23.79
2017-08-25T01:36:55.908Z,23.83
2017-08-25T01:37:05.918Z,23.86
2017-08-25T01:37:15.928Z,23.83
2017-08-25T01:37:25.941Z,23.86
2017-08-25T01:37:35.968Z,23.9
2017-08-25T01:37:45.958Z,23.8
2017-08-25T01:37:55.997Z,23.86
2017-08-25T01:38:06.014Z,23.86
2017-08-25T01:38:15.998Z,23.83
2017-08-25T01:38:26.025Z,23.87
2017-08-25T01:38:36.061Z,23.8
2017-08-25T01:38:46.038Z,23.86
2017-08-25T01:38:56.068Z,23.87
2017-08-25T01:39:06.078Z,23.83
2017-08-25T01:39:16.198Z,23.79
2017-08-25T01:39:26.128Z,23.82
2017-08-25T01:39:36.128Z,23.79
2017-08-25T01:39:46.138Z,23.87
2017-08-25T01:39:56.149Z,23.82
2017-08-25T01:40:06.168Z,23.79
2017-08-25T01:40:16.178Z,23.83
2017-08-25T01:40:26.212Z,23.82
2017-08-25T01:40:36.208Z,23.82
2017-08-25T01:40:46.218Z,23.78
2017-08-25T01:40:56.228Z,23.79
2017-08-25T01:41:06.268Z,23.83
2017-08-25T01:41:16.257Z,23.85
2017-08-25T01:41:26.278Z,23.89
2017-08-25T01:41:36.278Z,23.85
2017-08-25T01:41:46.298Z,23.85
2017-08-25T01:41:56.328Z,23.8
2017-08-25T01:42:06.339Z,23.79
2017-08-25T01:42:16.345Z,23.83
2017-08-25T01:42:26.368Z,23.74
2017-08-25T01:42:36.358Z,23.82
2017-08-25T01:42:46.399Z,23.79
2017-08-25T01:42:56.422Z,23.87
2017-08-25T01:43:06.408Z,23.87
2017-08-25T01:43:16.418Z,23.86
2017-08-25T01:43:26.442Z,23.83
2017-08-25T01:43:36.470Z,23.79
2017-08-25T01:43:46.458Z,23.82
2017-08-25T01:43:56.528Z,23.89
2017-08-25T01:44:06.499Z,23.79
2017-08-25T01:44:16.529Z,23.86
2017-08-25T01:44:26.518Z,23.82
2017-08-25T01:44:36.548Z,23.75
2017-08-25T01:44:46.528Z,23.86
2017-08-25T01:44:56.569Z,23.75
2017-08-25T01:45:06.578Z,23.78
2017-08-25T01:45:16.626Z,23.85
2017-08-25T01:45:26.598Z,23.83
2017-08-25T01:45:36.618Z,23.83
2017-08-25T01:45:46.648Z,23.86
2017-08-25T01:45:56.650Z,23.75
2017-08-25T01:46:06.668Z,23.85
2017-08-25T01:46:16.715Z,23.79
2017-08-25T01:46:26.701Z,23.86
2017-08-25T01:46:36.718Z,23.75
2017-08-25T01:46:46.718Z,23.8
2017-08-25T01:46:56.746Z,23.79
2017-08-25T01:47:06.748Z,23.82
2017-08-25T01:47:16.769Z,23.8
2017-08-25T01:47:26.808Z,23.82
2017-08-25T01:47:36.798Z,23.87
2017-08-25T01:47:46.808Z,23.79
2017-08-25T01:47:56.828Z,23.87
2017-08-25T01:48:06.834Z,23.83
2017-08-25T01:48:16.855Z,23.79
2017-08-25T01:48:26.866Z,23.75
2017-08-25T01:48:36.859Z,23.82
2017-08-25T01:48:46.900Z,23.82
2017-08-25T01:48:56.930Z,23.82
2017-08-25T01:49:06.923Z,23.82
2017-08-25T01:49:16.928Z,23.83
2017-08-25T01:49:26.949Z,23.83
2017-08-25T01:49:36.978Z,23.82
2017-08-25T01:49:46.978Z,23.85
2017-08-25T01:49:56.987Z,23.8
2017-08-25T01:50:07.018Z,23.89
2017-08-25T01:50:17.038Z,23.82
2017-08-25T01:50:27.035Z,23.79
2017-08-25T01:50:37.073Z,23.82
2017-08-25T01:50:47.048Z,23.79
2017-08-25T01:50:57.091Z,23.79
2017-08-25T01:51:07.078Z,23.82
2017-08-25T01:51:17.090Z,23.75
2017-08-25T01:51:27.118Z,23.85
2017-08-25T01:51:37.149Z,23.8
2017-08-25T01:51:47.148Z,23.87
2017-08-25T01:51:57.138Z,23.85
2017-08-25T01:52:07.158Z,23.86
2017-08-25T01:52:17.208Z,23.85
2017-08-25T01:52:27.190Z,23.83
2017-08-25T01:52:37.234Z,23.86
2017-08-25T01:52:47.228Z,23.82
2017-08-25T01:52:57.248Z,23.87
2017-08-25T01:53:07.258Z,23.85
2017-08-25T01:53:17.278Z,23.74
2017-08-25T01:53:27.306Z,23.82
2017-08-25T01:53:37.278Z,23.8
2017-08-25T01:53:47.306Z,23.86
2017-08-25T01:53:57.338Z,23.79
2017-08-25T01:54:07.344Z,23.86
2017-08-25T01:54:17.358Z,23.79
2017-08-25T01:54:27.388Z,23.82
2017-08-25T01:54:37.387Z,23.79
2017-08-25T01:54:47.378Z,23.79
2017-08-25T01:54:57.410Z,23.75
2017-08-25T01:55:07.429Z,23.85
2017-08-25T01:55:17.448Z,23.82
2017-08-25T01:55:27.439Z,23.86
2017-08-25T01:55:37.519Z,23.8
2017-08-25T01:55:47.479Z,23.78
2017-08-25T01:55:57.479Z,23.82
2017-08-25T01:56:07.508Z,23.79
2017-08-25T01:56:17.525Z,23.9
2017-08-25T01:56:27.530Z,23.75
2017-08-25T01:56:37.538Z,23.85
2017-08-25T01:56:47.558Z,23.85
2017-08-25T01:56:57.578Z,23.82
2017-08-25T01:57:07.578Z,23.86
2017-08-25T01:57:17.618Z,23.82
2017-08-25T01:57:27.613Z,23.85
2017-08-25T01:57:37.619Z,23.78
2017-08-25T01:57:47.639Z,23.86
2017-08-25T01:57:57.657Z,23.75
2017-08-25T01:58:07.679Z,23.82
2017-08-25T01:58:17.699Z,23.85
2017-08-25T01:58:27.699Z,23.75
2017-08-25T01:58:37.709Z,23.86
2017-08-25T01:58:47.729Z,23.83
2017-08-25T01:58:57.772Z,23.75
2017-08-25T01:59:07.762Z,23.82
2017-08-25T01:59:17.765Z,23.79
2017-08-25T01:59:27.779Z,23.8
2017-08-25T01:59:37.809Z,23.79
2017-08-25T01:59:47.809Z,23.78
2017-08-25T01:59:57.819Z,23.89
2017-08-25T02:00:07.839Z,23.82
2017-08-25T02:00:17.877Z,23.82
2017-08-25T02:00:27.849Z,23.8
2017-08-25T02:00:37.884Z,23.82
2017-08-25T02:00:47.929Z,23.72
2017-08-25T02:00:57.906Z,23.79
2017-08-25T02:01:07.919Z,23.83
2017-08-25T02:01:17.938Z,23.78
2017-08-25T02:01:27.980Z,23.82
2017-08-25T02:01:37.969Z,23.86
2017-08-25T02:01:47.969Z,23.83
2017-08-25T02:01:58.009Z,23.86
2017-08-25T02:02:07.999Z,23.82
2017-08-25T02:02:18.008Z,23.82
2017-08-25T02:02:28.029Z,23.87
2017-08-25T02:02:38.039Z,23.79
2017-08-25T02:02:48.060Z,23.8
2017-08-25T02:02:58.079Z,23.79
2017-08-25T02:03:08.094Z,23.78
2017-08-25T02:03:18.119Z,23.82
2017-08-25T02:03:28.118Z,23.85
2017-08-25T02:03:38.148Z,23.83
2017-08-25T02:03:48.139Z,23.82
2017-08-25T02:03:58.139Z,23.82
2017-08-25T02:04:08.180Z,23.8
2017-08-25T02:04:18.187Z,23.87
2017-08-25T02:04:28.179Z,23.82
2017-08-25T02:04:38.219Z,23.75
2017-08-25T02:04:48.233Z,23.8
2017-08-25T02:04:58.229Z,23.82
2017-08-25T02:05:08.239Z,23.79
2017-08-25T02:05:18.265Z,23.83
2017-08-25T02:05:28.279Z,23.86
2017-08-25T02:05:38.299Z,23.85
2017-08-25T02:05:48.299Z,23.83
2017-08-25T02:05:58.319Z,23.8
2017-08-25T02:06:08.349Z,23.82
2017-08-25T02:06:18.399Z,23.79
2017-08-25T02:06:28.376Z,23.78
2017-08-25T02:06:38.389Z,23.8
2017-08-25T02:06:48.418Z,23.79
2017-08-25T02:06:58.399Z,23.83
2017-08-25T02:07:08.429Z,23.83
2017-08-25T02:07:18.449Z,23.79
2017-08-25T02:07:28.473Z,23.85
2017-08-25T02:07:38.459Z,23.79
2017-08-25T02:07:48.489Z,23.87
2017-08-25T02:07:58.501Z,23.82
2017-08-25T02:08:08.509Z,23.75
2017-08-25T02:08:18.515Z,23.79
2017-08-25T02:08:28.570Z,23.83
2017-08-25T02:08:38.572Z,23.78
2017-08-25T02:08:48.580Z,23.79
2017-08-25T02:08:58.645Z,23.82
2017-08-25T02:09:08.612Z,23.85
2017-08-25T02:09:18.628Z,23.82
2017-08-25T02:09:28.630Z,23.83
2017-08-25T02:09:38.639Z,23.79